Weather observations for the past three days for
Butts Army Airfield (Fort Carson)
| Date | Time (mdt) | Wind (mph) | Vis. (mi.) | Weather | Sky Cond. | Temperature (ºF) | Relative Humidity | Wind Chill (°F) | Heat Index (°F) | Pressure | Precipitation (in) | ||||||
|---|---|---|---|---|---|---|---|---|---|---|---|---|---|---|---|---|---|
| Air | Dwpt | 6 hour | altimeter (in) | sea level (mb) | 1 hr | 3 hr | 6 hr | ||||||||||
| Max. | Min. | ||||||||||||||||
| 09 | 14:55 | S 7 | 10.00 | Overcast | OVC130 | 73.4 | 19.6 | 13% | 29.93 | 1008.8 | |||||||
| 09 | 13:55 | SE 13 | 10.00 | Overcast | OVC120 | 73.8 | 23.2 | 15% | 29.94 | 1008.7 | |||||||
| 09 | 12:55 | E 5 | 10.00 | A Few Clouds | FEW130 | 72.7 | 19 | 13% | 29.95 | 1009.0 | |||||||
| 09 | 11:55 | SE 3 | 10.00 | A Few Clouds | FEW120 | 74.8 | 22.5 | 74.8 | 43.9 | 14% | 29.97 | 1009.7 | |||||
| 09 | 10:55 | NE 5 | 10.00 | Fair | CLR | 70.7 | 23.7 | 17% | 29.99 | 1010.4 | |||||||
| 09 | 09:55 | N 6 | 10.00 | Overcast | OVC170 | 67.1 | 22.1 | 18% | 29.99 | 1011.0 | |||||||
| 09 | 08:55 | Calm | 10.00 | Partly Cloudy | SCT200 | 58.3 | 34.7 | 41% | 30 | 1012.3 | |||||||
| 09 | 07:55 | NE 8 | 10.00 | A Few Clouds | FEW180 | 55.8 | 36.9 | 49% | 29.99 | 1012.5 | |||||||
| 09 | 06:55 | N 6 | 10.00 | Fair | CLR | 49.8 | 35.6 | 58% | 48 | 29.98 | 1011.1 | ||||||
| 09 | 05:55 | NW 8 | 10.00 | Fair | CLR | 45.1 | 34.5 | 56.1 | 44.6 | 66% | 41 | 29.96 | 1011.4 | ||||
| 09 | 04:55 | NW 7 | 10.00 | Fair | CLR | 46 | 35.2 | 66% | 43 | 29.96 | 1011.4 | ||||||
| 09 | 03:55 | S 3 | 10.00 | Fair | CLR | 53.6 | 33.3 | 46% | 29.97 | 1010.3 | |||||||
| 09 | 02:55 | SW 8 | 10.00 | Fair | CLR | 52.7 | 33.6 | 48% | 29.99 | 1011.5 | |||||||
| 09 | 01:55 | SW 9 | 10.00 | Fair | CLR | 54.1 | 33.8 | 46% | 30 | 1011.8 | |||||||
| 09 | 00:55 | S 6 | 10.00 | Fair | CLR | 55.2 | 34.2 | 45% | 30.02 | 1012.5 | |||||||
| 08 | 23:55 | SW 9 | 10.00 | Fair | CLR | 54.3 | 35.1 | 70.7 | 54.3 | 48% | 30.03 | 1013.4 | |||||
| 08 | 22:55 | SW 6 | 10.00 | Fair | CLR | 57 | 37 | 47% | 30.04 | 1013.7 | |||||||
| 08 | 21:55 | Calm | 10.00 | Partly Cloudy | SCT110 | 56.7 | 37.2 | 48% | 30.04 | 1014.3 | |||||||
| 08 | 20:55 | Calm | 10.00 | Mostly Cloudy | BKN100 BKN130 | 59.7 | 36.5 | 42% | 30.01 | 1013.2 | |||||||
| 08 | 19:55 | SE 6 | 10.00 | Overcast | BKN080 OVC100 | 57.7 | 32.9 | 39% | 29.99 | 1013.0 | |||||||
| 08 | 18:55 | E 12 | 10.00 | Mostly Cloudy | BKN085 BKN120 | 70.3 | 36.5 | 29% | 29.97 | 1011.3 | |||||||
| 08 | 17:55 | S 10 | 10.00 | Mostly Cloudy | BKN140 | 70 | 30.4 | 72.5 | 64.8 | 23% | 29.96 | 1011.4 | |||||
| 08 | 16:55 | S 9 | 10.00 | Fair | CLR | 69.8 | 30.4 | 23% | 29.96 | 1011.4 | |||||||
| 08 | 15:55 | SE 10 | 10.00 | Partly Cloudy | FEW080 SCT090 | 71.1 | 33.4 | 25% | 29.97 | 1010.8 | |||||||
| 08 | 14:55 | SE 6 | 10.00 | Overcast | OVC080 | 69.8 | 33.4 | 26% | 29.99 | 1011.5 | |||||||
| 08 | 13:55 | S 6 | 10.00 | A Few Clouds | FEW080 | 69.1 | 33.6 | 27% | 30 | 1011.8 | |||||||
| 08 | 12:55 | S 7 | 10.00 | Fair | CLR | 66.6 | 34.2 | 30% | 30.01 | 1012.2 | |||||||
| 08 | 11:55 | Calm | 10.00 | Fair | CLR | 65.1 | 37.6 | 67.8 | 42.8 | 36% | 30.04 | 1013.7 | |||||
| 08 | 10:55 | E 3 | 10.00 | Fair | CLR | 60.3 | 36.5 | 41% | 30.05 | 1014.1 | |||||||
| 08 | 09:55 | NE 8 | 10.00 | Fair | CLR | 58.3 | 37.6 | 46% | 30.06 | 1013.9 | |||||||
| 08 | 08:55 | N 18 | 10.00 | Fair | CLR | 55.8 | 38.5 | 52% | 30.07 | 1015.3 | |||||||
| 08 | 07:55 | E 9 | 10.00 | Fair | CLR | 53.8 | 34.5 | 48% | 30.03 | 1013.4 | |||||||
| 08 | 06:55 | N 8 | 10.00 | A Few Clouds | FEW100 | 47.3 | 36.1 | 65% | 44 | 30.02 | 1013.6 | ||||||
| 08 | 05:55 | Calm | 10.00 | Fair | CLR | 43.5 | 32.9 | 55.6 | 41.2 | 66% | 29.99 | 1013.0 | |||||
| 08 | 04:55 | N 5 | 10.00 | Fair | CLR | 44.6 | 34.3 | 67% | 43 | 29.99 | 1012.5 | ||||||
| 08 | 03:55 | W 5 | 10.00 | Mostly Cloudy | BKN120 | 51.1 | 34.5 | 53% | 29.99 | 1012.0 | |||||||
| 08 | 02:55 | Calm | 10.00 | Overcast | OVC110 | 52.3 | 34.2 | 50% | 30 | 1011.8 | |||||||
| 08 | 01:55 | NE 6 | 10.00 | Overcast | BKN100 OVC130 | 52.9 | 34.7 | 50% | 30 | 1011.8 | |||||||
| 08 | 00:55 | E 3 | 10.00 | Overcast | OVC120 | 54 | 34.2 | 47% | 30.01 | 1012.2 | |||||||
| 07 | 23:55 | N 9 | 10.00 | Overcast | OVC130 | 53.1 | 33.8 | 69.8 | 53.1 | 48% | 30 | 1012.9 | |||||
| 07 | 22:55 | N 3 | 10.00 | Overcast | OVC120 | 56.3 | 31.1 | 38% | 29.99 | 1012.0 | |||||||
| 07 | 21:55 | NW 6 | 10.00 | Overcast | OVC120 | 61.3 | 27.1 | 27% | 29.99 | 1011.5 | |||||||
| 07 | 20:55 | W 6 | 8.00 | A Few Clouds | FEW150 FEW210 | 59.9 | 27.5 | 29% | 29.97 | 1011.8 | |||||||
| 07 | 19:55 | W 5 | 10.00 | Overcast | BKN100 OVC130 | 63.1 | 30.4 | 29% | 29.95 | 1012.1 | |||||||
| 07 | 18:55 | S 8 | 10.00 | Mostly Cloudy | BKN100 BKN130 | 66.6 | 31.5 | 27% | 29.94 | 1012.3 | |||||||
| 07 | 17:55 | Calm | 10.00 | Overcast | OVC110 | 68.5 | 24.6 | 70.3 | 59.4 | 19% | 29.94 | 1013.3 | |||||
| 07 | 16:55 | S 7 | 10.00 | Overcast | OVC110 | 70.2 | 27.1 | 20% | 29.94 | 1012.8 | |||||||
| 07 | 15:55 | SW 6 | 10.00 | Mostly Cloudy | BKN100 | 68 | 24.3 | 19% | 29.95 | 1013.2 | |||||||
| 07 | 14:55 | SW 3 | 10.00 | A Few Clouds | FEW110 | 68.4 | 23.2 | 18% | 29.97 | 1014.4 | |||||||
| 07 | 13:55 | W 9 | 10.00 | Fair | CLR | 69.1 | 25.2 | 19% | 30 | 1014.9 | |||||||
| 07 | 12:55 | S 6 G 16 | 10.00 | Fair | CLR | 66.4 | 18.9 | 16% | 30.02 | 1016.1 | |||||||
| 07 | 11:55 | S 8 | 10.00 | Fair | CLR | 60.6 | 16.9 | 63.7 | 28.6 | 18% | 30.04 | 1017.8 | |||||
| 07 | 10:55 | SW 6 | 10.00 | Fair | CLR | 62.8 | 14.4 | 15% | 30.06 | 1017.5 | |||||||
| 07 | 09:55 | N 3 | 10.00 | Fair | CLR | 59.5 | 19.6 | 21% | 30.07 | 1018.4 | |||||||
| 07 | 08:55 | N 5 | 10.00 | Fair | CLR | 52 | 28.9 | 41% | 30.08 | 1019.8 | |||||||
| 07 | 07:55 | N 5 | 10.00 | Fair | CLR | 42.6 | 28.9 | 59% | 40 | 30.08 | 1020.8 | ||||||
| 07 | 06:55 | NW 6 | 10.00 | Fair | CLR | 36.1 | 25.9 | 66% | 32 | 30.07 | 1020.9 | ||||||
| 07 | 05:55 | NW 9 | 10.00 | Fair | CLR | 28.4 | 22.5 | 32.9 | 27.9 | 78% | 20 | 30.06 | 1021.1 | ||||
| 07 | 04:55 | NW 5 | 10.00 | Fair | CLR | 29.1 | 23.4 | 79% | 25 | 30.07 | 1021.9 | ||||||
| 07 | 03:55 | NW 5 | 10.00 | Fair | CLR | 30.4 | 25.2 | 81% | 26 | 30.08 | 1022.3 | ||||||
| 07 | 02:55 | NW 7 | 10.00 | Fair | CLR | 28.6 | 25.2 | 87% | 22 | 30.09 | 1022.6 | ||||||
| 07 | 01:55 | NW 6 | 10.00 | Fair | CLR | 29.1 | 26.1 | 88% | 24 | 30.11 | 1023.9 | ||||||
| 07 | 00:55 | NW 9 | 10.00 | Fair | CLR | 29.1 | 26.2 | 89% | 21 | 30.13 | 1024.6 | ||||||
| 06 | 23:55 | NW 7 | 10.00 | Fair | CLR | 29.3 | 26.4 | 41.5 | 28.6 | 89% | 23 | 30.12 | 1024.2 | ||||
| 06 | 22:55 | Calm | 10.00 | Fair | CLR | 32.5 | 28.8 | 86% | 30.12 | 1023.7 | |||||||
| 06 | 20:55 | S 9 | 10.00 | Fair | CLR | 33.3 | 30 | 88% | 26 | 30.11 | 1023.4 | ||||||
| 06 | 19:55 | S 8 | 10.00 | Fair | CLR | 36.9 | 29.3 | 74% | 31 | 30.11 | 1022.8 | ||||||
| 06 | 18:55 | W 9 | 10.00 | A Few Clouds | FEW040 | 39.7 | 29.7 | 67% | 34 | 30.11 | 1022.8 | ||||||
| 06 | 17:55 | SW 8 | 10.00 | Mostly Cloudy | BKN043 | 41.5 | 28.8 | 41.5 | 32.2 | 61% | 37 | 30.1 | 1022.0 | 0.03 | |||
| 06 | 16:55 | SW 6 | 10.00 | Overcast | OVC038 | 40.5 | 29.7 | 65% | 37 | 30.11 | 1022.3 | ||||||
| 06 | 15:55 | Calm | 10.00 | Overcast | OVC036 | 38.8 | 26.6 | 62% | 30.11 | 1022.8 | 0.01 | ||||||
| Date | Time (mdt) | Wind (mph) | Vis. (mi.) | Weather | Sky Cond. | Air | Dwpt | Max. | Min. | Relative Humidity | Wind Chill (°F) | Heat Index (°F) | altimeter (in) | sea level (mb) | 1 hr | 3 hr | 6 hr |
| 6 hour | |||||||||||||||||
| Temperature (ºF) | Pressure | Precipitation (in) | |||||||||||||||